AirNav   Everest Fuels
 
 1662 users online  

SC47 Parker Field Airport
Simpsonville, South Carolina, USA

GOING TO SIMPSONVILLE?


FAA INFORMATION EFFECTIVE 10 SEPTEMBER 2020

Location

FAA Identifier: SC47
Lat/Long: 34-45-41.0000N 082-09-41.0000W
34-45.683333N 082-09.683333W
34.7613889,-82.1613889
(estimated)
Elevation: 860 ft. / 262 m (estimated)
Variation: 05W (1995)
From city: 5 miles E of SIMPSONVILLE, SC
Time zone: UTC -4 (UTC -5 during Standard Time)
Zip code: 29681

Airport Operations

Airport use: Private use. Permission required prior to landing
Activation date: 01/1997
Control tower: no
ARTCC: ATLANTA CENTER
FSS: ANDERSON FLIGHT SERVICE STATION
Attendance: UNATNDD
Segmented circle: no
Lights: ACTVT LIRL RY 05/23 - 122.9.

Airport Communications

WX ASOS at GSP (9 nm N): 134.25 (864-879-0614)
WX AWOS-3 at GYH (11 nm W): 127.325 (864-277-5674)
WX ASOS at GMU (11 nm NW): 127.075 (864-239-0014)
WX AWOS-3 at SPA (14 nm NE): 133.925 (864-587-2529)
WX AWOS-3 at LUX (19 nm SE): 123.975 (864-682-3639)

Nearby radio navigation aids

VOR radial/distance  VOR name  Freq  Var
SPAr217/20.0SPARTANBURG VORTAC115.7002W
GRDr000/30.6GREENWOOD VORTAC115.5001W
ELWr056/37.0ELECTRIC CITY VORTAC108.6000E
SUGr174/39.1SUGARLOAF MOUNTAIN VORTAC112.2002W

 
NDB name  Hdg/Dist  Freq  Var  ID
JUDKY102/9.452105WGM --. --
FAIRMONT231/12.124805WFRT ..-. .-. -
DYANA077/14.533804WGY --. -.--
UNION COUNTY286/26.032606WUOT ..- --- -
CORONACA000/30.723907WGIW --. .. .--
BROAD RIVER161/34.237907WBRA -... .-. .-
ENOREE323/37.527807WEOE . --- .

Airport Services

Runway Information

Runway 5/23

Dimensions: 3200 x 100 ft. / 975 x 30 m
Surface: turf
Runway edge lights: non-standard
RY 05/23 NSTD LIRL: RY LGTS SPACED EVERY 200 FT W/LGTS AT THLD & 200 FT RED AND LGTS AT 400 FT FROM EACH THLD GREEN TO INDICATE DSPLCD THLDS.
RUNWAY 5  RUNWAY 23
Traffic pattern: leftleft
Displaced threshold: 400 ft.400 ft.
Obstructions: treestrees

Airport Ownership and Management from official FAA records

Ownership: Privately-owned
Owner: FOOTHILLS AERODROME, INC.
11 CRUISEAIR COURT
SIMPSONVILLE, SC 29681
Phone 864-967-9822
Manager: BILL MACINTOSH
131 STEWART ROAD
SIMPSONVILLE, SC 29681
Phone 864-967-9822
SECRETARY: BILL CLUTE - 864-478-7023

Airport Operational Statistics

Aircraft based on the field: 10
Single engine airplanes: 10
    

Additional Remarks

ULTRALIGHT TFC IN AREA & CROSSING FIELD BELOW TFC PAT ALT.
FOR CD CTC ATLANTA ARTCC AT 770-210-7692.

Instrument Procedures

There are no published instrument procedures at SC47.

Some nearby airports with instrument procedures:

KGSP - Greenville Spartanburg International Airport (9 nm N)
KGYH - Donaldson Field Airport (11 nm W)
KGMU - Greenville Downtown Airport (11 nm NW)
KSPA - Spartanburg Downtown Memorial Airport/Simpson Field (14 nm NE)
KLUX - Laurens County Airport (19 nm SE)
 
Loc | Ops | Rwys | IFR | FBO | Links
Com | Nav | Svcs | Stats | Notes
Area around SC47 (Parker Field Airport)
 
Road maps at: MapQuest Bing Google
 
Aerial photo
WARNING: Photo may not be current or correct
Aerial photo of SC47 (Parker Field Airport)
Do you have a better or more recent aerial photo of Parker Field Airport that you would like to share? If so, please send us your photo.

 
Sectional chart

 
Airport distance calculator
Flying to Parker Field Airport? Find the distance to fly.

From to SC47

Sunrise and sunset
Times for 18-Sep-2020
 Local
(UTC-4)
 Zulu
(UTC)
Morning civil twilight06:5010:50
Sunrise07:1511:15
Sunset19:2923:29
Evening civil twilight19:5523:55

Current date and time
Zulu (UTC)  18-Sep-2020 17:23:56
Local (UTC-4)  18-Sep-2020 13:23:56
 
METAR
KGSP 
9nm N 
181653Z 02010KT 10SM CLR 25/17 A2996 RMK AO2 SLP136 T02500172
KGYH 
11nm W 
181647Z 03011G18KT 10SM SCT035 26/17 A2995
KGMU 
11nm NW 
181653Z 02010KT 10SM CLR 26/17 A2997 RMK AO2 SLP137 T02610172
KLUX 
19nm SE 
181655Z AUTO 05009G17KT 010V070 10SM SCT029 BKN036 25/18 A2995 RMK AO2
KSPA 
20nm NE 
181655Z AUTO 01009KT 10SM OVC037 25/16 A2995 RMK AO2
TAF
KGSP 
9nm N 
181124Z 1812/1912 02011KT P6SM OVC035 FM181400 02011G19KT P6SM SCT045 BKN070 FM190000 03008KT P6SM FEW050 BKN250 FM190600 03011KT P6SM BKN050
KGMU 
11nm NW 
181602Z 1816/1912 04010G18KT P6SM SCT045 BKN070 FM190000 03007KT P6SM FEW050 BKN250 FM190600 04012KT P6SM BKN045
NOTAMs
Click for the latest NOTAMs
NOTAMs are issued by the DoD/FAA and will open in a separate window not controlled by AirNav.

 

 
 

Would you like to see your business listed on this page?

 If your business provides an interesting product or service to pilots, flight crews, aircraft, or users of the Parker Field Airport, you should consider listing it here.  To start the listing process, click on the button below
 
Add a business
 

Other Pages about Parker Field Airport

Update a link
 
Copyright © AirNav, LLC. All rights reserved. Privacy Policy  Contact